Terminal Aerodrome Forecast
Issued by NWS Wilmington, OH

Home | Current Version | Previous Version | Text Only | Print | Product List | Glossary On
Versions: 1 2 3 4 5 6 7 8 9 10 11 12 13 14 15 16 17 18 19 20 21 22
000
FTUS41 KILN 220913 AAA
TAFCVG
TAF AMD
KCVG 220913Z 2209/2312 19005KT P6SM BKN150
     FM221600 24011G21KT P6SM SHRA VCTS BKN045CB
     FM222300 26009G17KT P6SM BKN045
     FM230200 29008KT P6SM BKN040
     FM230500 33008KT P6SM SCT045=

USA.gov is the U.S. government's official web portal to all federal, state and local government web resources and services.